sensor_id;sensor_type;location;lat;lon;timestamp;P1;durP1;ratioP1;P2;durP2;ratioP2
11865;SDS011;5992;52.744;6.898;2022-11-20T00:01:45;12.47;;;8.23;;
11865;SDS011;5992;52.744;6.898;2022-11-20T00:04:57;10.47;;;7.83;;
11865;SDS011;5992;52.744;6.898;2022-11-20T00:07:57;12.37;;;8.20;;
11865;SDS011;5992;52.744;6.898;2022-11-20T00:11:13;12.80;;;8.20;;
11865;SDS011;5992;52.744;6.898;2022-11-20T00:14:29;11.30;;;7.90;;
11865;SDS011;5992;52.744;6.898;2022-11-20T00:17:56;10.57;;;7.53;;
11865;SDS011;5992;52.744;6.898;2022-11-20T00:21:00;12.80;;;8.57;;
11865;SDS011;5992;52.744;6.898;2022-11-20T00:24:23;12.63;;;7.63;;
11865;SDS011;5992;52.744;6.898;2022-11-20T00:27:23;13.10;;;8.83;;
11865;SDS011;5992;52.744;6.898;2022-11-20T00:30:36;10.83;;;7.73;;
11865;SDS011;5992;52.744;6.898;2022-11-20T00:33:49;9.97;;;7.57;;
11865;SDS011;5992;52.744;6.898;2022-11-20T00:37:02;14.80;;;8.43;;
11865;SDS011;5992;52.744;6.898;2022-11-20T00:40:02;14.85;;;8.05;;
11865;SDS011;5992;52.744;6.898;2022-11-20T00:43:18;10.70;;;7.00;;
11865;SDS011;5992;52.744;6.898;2022-11-20T00:46:21;11.25;;;8.00;;
11865;SDS011;5992;52.744;6.898;2022-11-20T00:49:43;11.03;;;7.70;;
11865;SDS011;5992;52.744;6.898;2022-11-20T00:52:43;9.47;;;7.80;;
11865;SDS011;5992;52.744;6.898;2022-11-20T00:55:55;11.80;;;7.40;;
11865;SDS011;5992;52.744;6.898;2022-11-20T00:59:08;12.23;;;7.30;;
11865;SDS011;5992;52.744;6.898;2022-11-20T01:02:35;10.10;;;7.57;;
11865;SDS011;5992;52.744;6.898;2022-11-20T01:05:47;12.63;;;7.97;;
11865;SDS011;5992;52.744;6.898;2022-11-20T01:09:00;10.53;;;7.90;;
11865;SDS011;5992;52.744;6.898;2022-11-20T01:12:11;12.07;;;8.00;;
11865;SDS011;5992;52.744;6.898;2022-11-20T01:15:23;11.40;;;7.63;;
11865;SDS011;5992;52.744;6.898;2022-11-20T01:18:25;11.13;;;7.53;;
11865;SDS011;5992;52.744;6.898;2022-11-20T01:21:50;12.30;;;7.80;;
11865;SDS011;5992;52.744;6.898;2022-11-20T01:25:01;9.80;;;7.53;;
11865;SDS011;5992;52.744;6.898;2022-11-20T01:28:25;10.67;;;7.33;;
11865;SDS011;5992;52.744;6.898;2022-11-20T01:31:29;9.23;;;7.13;;
11865;SDS011;5992;52.744;6.898;2022-11-20T01:34:54;10.07;;;7.47;;
11865;SDS011;5992;52.744;6.898;2022-11-20T01:38:06;8.80;;;7.15;;
11865;SDS011;5992;52.744;6.898;2022-11-20T01:41:19;10.75;;;7.25;;
11865;SDS011;5992;52.744;6.898;2022-11-20T01:44:43;12.35;;;7.25;;
11865;SDS011;5992;52.744;6.898;2022-11-20T01:48:06;10.17;;;7.07;;
11865;SDS011;5992;52.744;6.898;2022-11-20T01:51:22;10.70;;;7.70;;
11865;SDS011;5992;52.744;6.898;2022-11-20T01:54:46;10.40;;;7.20;;
11865;SDS011;5992;52.744;6.898;2022-11-20T01:57:57;13.45;;;7.45;;
11865;SDS011;5992;52.744;6.898;2022-11-20T02:01:21;11.10;;;7.20;;
11865;SDS011;5992;52.744;6.898;2022-11-20T02:04:45;9.83;;;7.50;;
11865;SDS011;5992;52.744;6.898;2022-11-20T02:07:59;10.27;;;7.40;;
11865;SDS011;5992;52.744;6.898;2022-11-20T02:11:24;10.50;;;7.37;;
11865;SDS011;5992;52.744;6.898;2022-11-20T02:14:24;10.07;;;7.27;;
11865;SDS011;5992;52.744;6.898;2022-11-20T02:17:38;8.87;;;6.40;;
11865;SDS011;5992;52.744;6.898;2022-11-20T02:20:52;8.20;;;6.67;;
11865;SDS011;5992;52.744;6.898;2022-11-20T02:24:17;9.50;;;6.70;;
11865;SDS011;5992;52.744;6.898;2022-11-20T02:27:29;9.15;;;6.80;;
11865;SDS011;5992;52.744;6.898;2022-11-20T02:30:53;8.97;;;6.87;;
11865;SDS011;5992;52.744;6.898;2022-11-20T02:33:54;8.47;;;5.80;;
11865;SDS011;5992;52.744;6.898;2022-11-20T02:37:19;8.90;;;6.23;;
11865;SDS011;5992;52.744;6.898;2022-11-20T02:40:32;7.45;;;5.50;;
11865;SDS011;5992;52.744;6.898;2022-11-20T02:43:57;10.30;;;6.80;;
11865;SDS011;5992;52.744;6.898;2022-11-20T02:46:58;8.23;;;5.97;;
11865;SDS011;5992;52.744;6.898;2022-11-20T02:50:22;8.07;;;6.10;;
11865;SDS011;5992;52.744;6.898;2022-11-20T02:53:22;7.63;;;6.03;;
11865;SDS011;5992;52.744;6.898;2022-11-20T02:56:35;9.53;;;6.90;;
11865;SDS011;5992;52.744;6.898;2022-11-20T02:59:48;9.27;;;6.83;;
11865;SDS011;5992;52.744;6.898;2022-11-20T03:03:12;9.63;;;6.40;;
11865;SDS011;5992;52.744;6.898;2022-11-20T03:06:15;10.70;;;6.30;;
11865;SDS011;5992;52.744;6.898;2022-11-20T03:09:39;8.87;;;6.57;;
11865;SDS011;5992;52.744;6.898;2022-11-20T03:12:40;10.70;;;6.93;;
11865;SDS011;5992;52.744;6.898;2022-11-20T03:16:08;8.87;;;6.00;;
11865;SDS011;5992;52.744;6.898;2022-11-20T03:19:21;8.00;;;6.10;;
11865;SDS011;5992;52.744;6.898;2022-11-20T03:22:45;8.95;;;6.15;;
11865;SDS011;5992;52.744;6.898;2022-11-20T03:25:46;7.30;;;5.75;;
11865;SDS011;5992;52.744;6.898;2022-11-20T03:29:00;9.07;;;6.73;;
11865;SDS011;5992;52.744;6.898;2022-11-20T03:32:11;7.10;;;5.90;;
11865;SDS011;5992;52.744;6.898;2022-11-20T03:35:23;9.13;;;6.37;;
11865;SDS011;5992;52.744;6.898;2022-11-20T03:38:23;8.43;;;6.30;;
11865;SDS011;5992;52.744;6.898;2022-11-20T03:41:35;8.80;;;5.87;;
11865;SDS011;5992;52.744;6.898;2022-11-20T03:44:48;8.95;;;5.80;;
11865;SDS011;5992;52.744;6.898;2022-11-20T03:48:13;7.43;;;5.33;;
11865;SDS011;5992;52.744;6.898;2022-11-20T03:51:14;8.60;;;6.27;;
11865;SDS011;5992;52.744;6.898;2022-11-20T03:54:38;8.53;;;5.47;;
11865;SDS011;5992;52.744;6.898;2022-11-20T03:57:38;7.10;;;5.53;;
11865;SDS011;5992;52.744;6.898;2022-11-20T04:00:52;7.80;;;5.70;;
11865;SDS011;5992;52.744;6.898;2022-11-20T04:04:18;8.20;;;6.15;;
11865;SDS011;5992;52.744;6.898;2022-11-20T04:07:18;7.35;;;6.45;;
11865;SDS011;5992;52.744;6.898;2022-11-20T04:10:30;6.07;;;5.47;;
11865;SDS011;5992;52.744;6.898;2022-11-20T04:13:33;8.43;;;5.97;;
11865;SDS011;5992;52.744;6.898;2022-11-20T04:16:46;8.60;;;5.77;;
11865;SDS011;5992;52.744;6.898;2022-11-20T04:19:59;6.65;;;5.15;;
11865;SDS011;5992;52.744;6.898;2022-11-20T04:23:12;10.60;;;5.70;;
11865;SDS011;5992;52.744;6.898;2022-11-20T04:26:12;7.30;;;5.33;;
11865;SDS011;5992;52.744;6.898;2022-11-20T04:29:36;7.57;;;5.27;;
11865;SDS011;5992;52.744;6.898;2022-11-20T04:32:37;6.80;;;4.73;;
11865;SDS011;5992;52.744;6.898;2022-11-20T04:36:02;6.97;;;5.43;;
11865;SDS011;5992;52.744;6.898;2022-11-20T04:39:14;9.00;;;4.95;;
11865;SDS011;5992;52.744;6.898;2022-11-20T04:42:40;6.45;;;5.50;;
11865;SDS011;5992;52.744;6.898;2022-11-20T04:45:40;7.10;;;5.00;;
11865;SDS011;5992;52.744;6.898;2022-11-20T04:48:53;7.20;;;5.50;;
11865;SDS011;5992;52.744;6.898;2022-11-20T04:52:09;7.37;;;5.37;;
11865;SDS011;5992;52.744;6.898;2022-11-20T04:55:21;6.47;;;5.13;;
11865;SDS011;5992;52.744;6.898;2022-11-20T04:58:21;5.87;;;4.53;;
11865;SDS011;5992;52.744;6.898;2022-11-20T05:01:45;6.45;;;5.10;;
11865;SDS011;5992;52.744;6.898;2022-11-20T05:04:46;7.00;;;5.40;;
11865;SDS011;5992;52.744;6.898;2022-11-20T05:08:12;7.93;;;5.87;;
11865;SDS011;5992;52.744;6.898;2022-11-20T05:11:12;6.67;;;5.00;;
11865;SDS011;5992;52.744;6.898;2022-11-20T05:14:37;6.63;;;5.77;;
11865;SDS011;5992;52.744;6.898;2022-11-20T05:17:38;7.77;;;5.60;;
11865;SDS011;5992;52.744;6.898;2022-11-20T05:20:55;6.15;;;4.75;;
11865;SDS011;5992;52.744;6.898;2022-11-20T05:24:07;6.75;;;5.00;;
11865;SDS011;5992;52.744;6.898;2022-11-20T05:27:19;6.50;;;4.70;;
11865;SDS011;5992;52.744;6.898;2022-11-20T05:30:19;7.03;;;5.13;;
11865;SDS011;5992;52.744;6.898;2022-11-20T05:33:32;6.97;;;4.97;;
11865;SDS011;5992;52.744;6.898;2022-11-20T05:36:45;7.33;;;4.97;;
11865;SDS011;5992;52.744;6.898;2022-11-20T05:40:13;6.40;;;5.17;;
11865;SDS011;5992;52.744;6.898;2022-11-20T05:43:16;5.55;;;4.95;;
11865;SDS011;5992;52.744;6.898;2022-11-20T05:46:29;6.05;;;4.70;;
11865;SDS011;5992;52.744;6.898;2022-11-20T05:49:29;6.40;;;4.85;;
11865;SDS011;5992;52.744;6.898;2022-11-20T05:52:47;6.30;;;5.03;;
11865;SDS011;5992;52.744;6.898;2022-11-20T05:55:59;6.60;;;5.13;;
11865;SDS011;5992;52.744;6.898;2022-11-20T05:59:23;7.70;;;5.27;;
11865;SDS011;5992;52.744;6.898;2022-11-20T06:02:23;5.90;;;4.53;;
11865;SDS011;5992;52.744;6.898;2022-11-20T06:05:35;6.90;;;5.20;;
11865;SDS011;5992;52.744;6.898;2022-11-20T06:08:37;5.13;;;4.63;;
11865;SDS011;5992;52.744;6.898;2022-11-20T06:12:01;6.47;;;5.37;;
11865;SDS011;5992;52.744;6.898;2022-11-20T06:15:05;9.10;;;5.40;;
11865;SDS011;5992;52.744;6.898;2022-11-20T06:18:17;6.57;;;4.80;;
11865;SDS011;5992;52.744;6.898;2022-11-20T06:21:29;6.55;;;5.20;;
11865;SDS011;5992;52.744;6.898;2022-11-20T06:24:43;7.95;;;4.40;;
11865;SDS011;5992;52.744;6.898;2022-11-20T06:27:55;7.03;;;4.73;;
11865;SDS011;5992;52.744;6.898;2022-11-20T06:31:09;6.17;;;5.03;;
11865;SDS011;5992;52.744;6.898;2022-11-20T06:34:19;7.63;;;5.37;;
11865;SDS011;5992;52.744;6.898;2022-11-20T06:37:31;6.67;;;4.57;;
11865;SDS011;5992;52.744;6.898;2022-11-20T06:40:33;6.65;;;4.90;;
11865;SDS011;5992;52.744;6.898;2022-11-20T06:43:57;8.13;;;5.33;;
11865;SDS011;5992;52.744;6.898;2022-11-20T06:46:57;7.15;;;5.00;;
11865;SDS011;5992;52.744;6.898;2022-11-20T06:50:09;7.17;;;4.97;;
11865;SDS011;5992;52.744;6.898;2022-11-20T06:53:09;7.50;;;5.03;;
11865;SDS011;5992;52.744;6.898;2022-11-20T06:56:23;7.13;;;4.90;;
11865;SDS011;5992;52.744;6.898;2022-11-20T06:59:34;7.27;;;5.07;;
11865;SDS011;5992;52.744;6.898;2022-11-20T07:02:46;7.40;;;5.83;;
11865;SDS011;5992;52.744;6.898;2022-11-20T07:05:46;8.15;;;5.40;;
11865;SDS011;5992;52.744;6.898;2022-11-20T07:08:58;8.20;;;6.17;;
11865;SDS011;5992;52.744;6.898;2022-11-20T07:12:00;7.00;;;5.40;;
11865;SDS011;5992;52.744;6.898;2022-11-20T07:15:25;8.60;;;5.83;;
11865;SDS011;5992;52.744;6.898;2022-11-20T07:18:36;7.30;;;5.73;;
11865;SDS011;5992;52.744;6.898;2022-11-20T07:21:48;7.83;;;5.87;;
11865;SDS011;5992;52.744;6.898;2022-11-20T07:24:48;8.43;;;6.37;;
11865;SDS011;5992;52.744;6.898;2022-11-20T07:28:03;10.10;;;6.10;;
11865;SDS011;5992;52.744;6.898;2022-11-20T07:31:15;7.27;;;5.40;;
11865;SDS011;5992;52.744;6.898;2022-11-20T07:34:27;6.07;;;5.17;;
11865;SDS011;5992;52.744;6.898;2022-11-20T07:37:27;6.40;;;5.40;;
11865;SDS011;5992;52.744;6.898;2022-11-20T07:40:42;6.60;;;5.50;;
11865;SDS011;5992;52.744;6.898;2022-11-20T07:43:57;7.95;;;5.15;;
11865;SDS011;5992;52.744;6.898;2022-11-20T07:47:21;6.70;;;5.23;;
11865;SDS011;5992;52.744;6.898;2022-11-20T07:50:21;8.90;;;5.95;;
11865;SDS011;5992;52.744;6.898;2022-11-20T07:53:33;6.93;;;5.57;;
11865;SDS011;5992;52.744;6.898;2022-11-20T07:56:33;6.83;;;5.50;;
11865;SDS011;5992;52.744;6.898;2022-11-20T07:59:47;7.30;;;4.93;;
11865;SDS011;5992;52.744;6.898;2022-11-20T08:03:11;6.80;;;5.23;;
11865;SDS011;5992;52.744;6.898;2022-11-20T08:06:11;8.15;;;5.60;;
11865;SDS011;5992;52.744;6.898;2022-11-20T08:09:24;6.43;;;5.50;;
11865;SDS011;5992;52.744;6.898;2022-11-20T08:12:24;7.70;;;5.50;;
11865;SDS011;5992;52.744;6.898;2022-11-20T08:15:47;6.70;;;5.00;;
11865;SDS011;5992;52.744;6.898;2022-11-20T08:18:57;9.47;;;5.33;;
11865;SDS011;5992;52.744;6.898;2022-11-20T08:22:11;6.60;;;5.30;;
11865;SDS011;5992;52.744;6.898;2022-11-20T08:25:11;8.67;;;5.70;;
11865;SDS011;5992;52.744;6.898;2022-11-20T08:28:24;6.55;;;5.00;;
11865;SDS011;5992;52.744;6.898;2022-11-20T08:31:26;8.33;;;6.13;;
11865;SDS011;5992;52.744;6.898;2022-11-20T08:34:50;6.17;;;5.43;;
11865;SDS011;5992;52.744;6.898;2022-11-20T08:37:50;7.80;;;5.37;;
11865;SDS011;5992;52.744;6.898;2022-11-20T08:41:02;7.67;;;6.10;;
11865;SDS011;5992;52.744;6.898;2022-11-20T08:44:27;7.85;;;5.85;;
11865;SDS011;5992;52.744;6.898;2022-11-20T08:47:45;6.90;;;5.35;;
11865;SDS011;5992;52.744;6.898;2022-11-20T08:50:58;7.13;;;5.33;;
11865;SDS011;5992;52.744;6.898;2022-11-20T08:54:22;7.70;;;5.57;;
11865;SDS011;5992;52.744;6.898;2022-11-20T08:57:22;7.33;;;5.77;;
11865;SDS011;5992;52.744;6.898;2022-11-20T09:00:35;8.07;;;5.43;;
11865;SDS011;5992;52.744;6.898;2022-11-20T09:03:37;8.17;;;6.03;;
11865;SDS011;5992;52.744;6.898;2022-11-20T09:07:01;7.53;;;5.83;;
11865;SDS011;5992;52.744;6.898;2022-11-20T09:10:01;6.13;;;4.70;;
11865;SDS011;5992;52.744;6.898;2022-11-20T09:13:13;7.37;;;6.10;;
11865;SDS011;5992;52.744;6.898;2022-11-20T09:16:13;7.30;;;5.80;;
11865;SDS011;5992;52.744;6.898;2022-11-20T09:19:26;8.20;;;6.33;;
11865;SDS011;5992;52.744;6.898;2022-11-20T09:22:39;7.87;;;5.87;;
11865;SDS011;5992;52.744;6.898;2022-11-20T09:26:06;7.65;;;5.70;;
11865;SDS011;5992;52.744;6.898;2022-11-20T09:29:22;7.85;;;6.30;;
11865;SDS011;5992;52.744;6.898;2022-11-20T09:32:35;7.50;;;5.70;;
11865;SDS011;5992;52.744;6.898;2022-11-20T09:35:37;7.30;;;5.70;;
11865;SDS011;5992;52.744;6.898;2022-11-20T09:39:02;6.90;;;5.93;;
11865;SDS011;5992;52.744;6.898;2022-11-20T09:45:37;7.13;;;5.90;;
11865;SDS011;5992;52.744;6.898;2022-11-20T09:49:00;7.67;;;6.27;;
11865;SDS011;5992;52.744;6.898;2022-11-20T09:52:28;7.35;;;5.45;;
11865;SDS011;5992;52.744;6.898;2022-11-20T09:55:41;6.73;;;5.90;;
11865;SDS011;5992;52.744;6.898;2022-11-20T09:59:05;8.87;;;6.23;;
11865;SDS011;5992;52.744;6.898;2022-11-20T10:02:20;7.50;;;6.10;;
11865;SDS011;5992;52.744;6.898;2022-11-20T10:05:45;9.40;;;6.33;;
11865;SDS011;5992;52.744;6.898;2022-11-20T10:09:00;10.67;;;6.10;;
11865;SDS011;5992;52.744;6.898;2022-11-20T10:12:26;7.20;;;5.75;;
11865;SDS011;5992;52.744;6.898;2022-11-20T10:15:38;8.03;;;6.30;;
11865;SDS011;5992;52.744;6.898;2022-11-20T10:19:04;9.05;;;6.10;;
11865;SDS011;5992;52.744;6.898;2022-11-20T10:22:19;8.83;;;6.27;;
11865;SDS011;5992;52.744;6.898;2022-11-20T10:25:43;7.63;;;6.00;;
11865;SDS011;5992;52.744;6.898;2022-11-20T10:32:24;9.50;;;6.07;;
11865;SDS011;5992;52.744;6.898;2022-11-20T10:35:36;7.43;;;5.80;;
11865;SDS011;5992;52.744;6.898;2022-11-20T10:39:00;10.97;;;6.10;;
11865;SDS011;5992;52.744;6.898;2022-11-20T10:42:13;7.10;;;6.17;;
11865;SDS011;5992;52.744;6.898;2022-11-20T10:45:40;7.50;;;5.33;;
11865;SDS011;5992;52.744;6.898;2022-11-20T10:48:51;7.70;;;6.43;;
11865;SDS011;5992;52.744;6.898;2022-11-20T10:52:05;9.03;;;6.37;;
11865;SDS011;5992;52.744;6.898;2022-11-20T10:55:23;7.30;;;5.50;;
11865;SDS011;5992;52.744;6.898;2022-11-20T10:58:52;6.77;;;5.17;;
11865;SDS011;5992;52.744;6.898;2022-11-20T11:02:13;9.17;;;5.93;;
11865;SDS011;5992;52.744;6.898;2022-11-20T11:05:38;7.13;;;5.60;;
11865;SDS011;5992;52.744;6.898;2022-11-20T11:08:49;6.83;;;5.37;;
11865;SDS011;5992;52.744;6.898;2022-11-20T11:12:14;6.30;;;5.30;;
11865;SDS011;5992;52.744;6.898;2022-11-20T11:15:28;5.97;;;4.97;;
11865;SDS011;5992;52.744;6.898;2022-11-20T11:19:02;6.25;;;5.05;;
11865;SDS011;5992;52.744;6.898;2022-11-20T11:22:16;5.33;;;4.80;;
11865;SDS011;5992;52.744;6.898;2022-11-20T11:25:38;6.50;;;4.90;;
11865;SDS011;5992;52.744;6.898;2022-11-20T11:28:38;6.23;;;5.03;;
11865;SDS011;5992;52.744;6.898;2022-11-20T11:32:02;5.40;;;4.57;;
11865;SDS011;5992;52.744;6.898;2022-11-20T11:35:06;5.70;;;4.95;;
11865;SDS011;5992;52.744;6.898;2022-11-20T11:38:30;8.40;;;5.57;;
11865;SDS011;5992;52.744;6.898;2022-11-20T11:41:41;6.95;;;5.60;;
11865;SDS011;5992;52.744;6.898;2022-11-20T11:45:05;6.10;;;5.10;;
11865;SDS011;5992;52.744;6.898;2022-11-20T11:48:19;7.67;;;4.97;;
11865;SDS011;5992;52.744;6.898;2022-11-20T11:51:46;6.70;;;5.13;;
11865;SDS011;5992;52.744;6.898;2022-11-20T11:54:58;6.37;;;5.10;;
11865;SDS011;5992;52.744;6.898;2022-11-20T11:58:33;6.53;;;5.13;;
11865;SDS011;5992;52.744;6.898;2022-11-20T12:01:47;8.15;;;6.20;;
11865;SDS011;5992;52.744;6.898;2022-11-20T12:05:17;5.83;;;5.23;;
11865;SDS011;5992;52.744;6.898;2022-11-20T12:08:30;7.40;;;5.70;;
11865;SDS011;5992;52.744;6.898;2022-11-20T12:11:54;8.63;;;5.80;;
11865;SDS011;5992;52.744;6.898;2022-11-20T12:15:06;6.55;;;5.15;;
11865;SDS011;5992;52.744;6.898;2022-11-20T12:18:33;5.73;;;5.00;;
11865;SDS011;5992;52.744;6.898;2022-11-20T12:21:39;6.15;;;5.15;;
11865;SDS011;5992;52.744;6.898;2022-11-20T12:25:07;5.83;;;4.93;;
11865;SDS011;5992;52.744;6.898;2022-11-20T12:28:22;7.40;;;5.43;;
11865;SDS011;5992;52.744;6.898;2022-11-20T12:31:49;6.60;;;5.03;;
11865;SDS011;5992;52.744;6.898;2022-11-20T12:35:01;9.87;;;4.80;;
11865;SDS011;5992;52.744;6.898;2022-11-20T12:38:33;7.40;;;5.25;;
11865;SDS011;5992;52.744;6.898;2022-11-20T12:41:51;6.75;;;5.45;;
11865;SDS011;5992;52.744;6.898;2022-11-20T12:45:25;7.43;;;5.67;;
11865;SDS011;5992;52.744;6.898;2022-11-20T12:48:46;6.20;;;4.97;;
11865;SDS011;5992;52.744;6.898;2022-11-20T12:52:16;5.47;;;4.47;;
11865;SDS011;5992;52.744;6.898;2022-11-20T12:55:30;5.95;;;4.95;;
11865;SDS011;5992;52.744;6.898;2022-11-20T12:58:57;6.13;;;4.83;;
11865;SDS011;5992;52.744;6.898;2022-11-20T13:02:10;5.47;;;4.90;;
11865;SDS011;5992;52.744;6.898;2022-11-20T13:05:36;6.73;;;5.80;;
11865;SDS011;5992;52.744;6.898;2022-11-20T13:08:48;6.10;;;5.25;;
11865;SDS011;5992;52.744;6.898;2022-11-20T13:12:13;6.47;;;5.00;;
11865;SDS011;5992;52.744;6.898;2022-11-20T13:15:31;9.23;;;5.90;;
11865;SDS011;5992;52.744;6.898;2022-11-20T13:18:51;8.23;;;5.80;;
11865;SDS011;5992;52.744;6.898;2022-11-20T13:22:03;8.77;;;6.07;;
11865;SDS011;5992;52.744;6.898;2022-11-20T13:25:29;6.00;;;5.40;;
11865;SDS011;5992;52.744;6.898;2022-11-20T13:28:46;8.20;;;5.77;;
11865;SDS011;5992;52.744;6.898;2022-11-20T13:32:13;7.27;;;6.17;;
11865;SDS011;5992;52.744;6.898;2022-11-20T13:35:25;8.83;;;6.47;;
11865;SDS011;5992;52.744;6.898;2022-11-20T13:38:49;6.43;;;5.57;;
11865;SDS011;5992;52.744;6.898;2022-11-20T13:42:01;6.13;;;5.33;;
11865;SDS011;5992;52.744;6.898;2022-11-20T13:45:27;7.17;;;5.77;;
11865;SDS011;5992;52.744;6.898;2022-11-20T13:48:39;6.67;;;5.80;;
11865;SDS011;5992;52.744;6.898;2022-11-20T13:52:05;6.47;;;5.73;;
11865;SDS011;5992;52.744;6.898;2022-11-20T13:55:16;7.55;;;6.15;;
11865;SDS011;5992;52.744;6.898;2022-11-20T13:58:44;8.37;;;6.77;;
11865;SDS011;5992;52.744;6.898;2022-11-20T14:01:56;7.50;;;6.00;;
11865;SDS011;5992;52.744;6.898;2022-11-20T14:05:20;7.50;;;5.90;;
11865;SDS011;5992;52.744;6.898;2022-11-20T14:08:35;8.73;;;6.83;;
11865;SDS011;5992;52.744;6.898;2022-11-20T14:11:57;8.93;;;6.87;;
11865;SDS011;5992;52.744;6.898;2022-11-20T14:15:23;9.35;;;7.00;;
11865;SDS011;5992;52.744;6.898;2022-11-20T14:18:47;8.35;;;6.95;;
11865;SDS011;5992;52.744;6.898;2022-11-20T14:22:07;7.40;;;6.40;;
11865;SDS011;5992;52.744;6.898;2022-11-20T14:25:31;8.40;;;7.17;;
11865;SDS011;5992;52.744;6.898;2022-11-20T14:28:43;7.47;;;6.57;;
11865;SDS011;5992;52.744;6.898;2022-11-20T14:32:08;7.93;;;6.33;;
11865;SDS011;5992;52.744;6.898;2022-11-20T14:35:23;8.30;;;6.87;;
11865;SDS011;5992;52.744;6.898;2022-11-20T14:38:46;11.43;;;7.17;;
11865;SDS011;5992;52.744;6.898;2022-11-20T14:41:59;8.53;;;7.00;;
11865;SDS011;5992;52.744;6.898;2022-11-20T14:45:24;10.03;;;7.43;;
11865;SDS011;5992;52.744;6.898;2022-11-20T14:48:37;9.80;;;7.33;;
11865;SDS011;5992;52.744;6.898;2022-11-20T14:52:09;8.33;;;7.03;;
11865;SDS011;5992;52.744;6.898;2022-11-20T14:55:24;8.27;;;6.53;;
11865;SDS011;5992;52.744;6.898;2022-11-20T14:58:40;8.03;;;6.47;;
11865;SDS011;5992;52.744;6.898;2022-11-20T15:01:40;7.80;;;6.47;;
11865;SDS011;5992;52.744;6.898;2022-11-20T15:05:04;9.45;;;6.85;;
11865;SDS011;5992;52.744;6.898;2022-11-20T15:08:07;10.03;;;7.03;;
11865;SDS011;5992;52.744;6.898;2022-11-20T15:11:31;11.40;;;7.83;;
11865;SDS011;5992;52.744;6.898;2022-11-20T15:14:43;9.90;;;7.47;;
11865;SDS011;5992;52.744;6.898;2022-11-20T15:18:09;9.85;;;6.95;;
11865;SDS011;5992;52.744;6.898;2022-11-20T15:21:22;10.07;;;7.33;;
11865;SDS011;5992;52.744;6.898;2022-11-20T15:24:47;9.40;;;7.40;;
11865;SDS011;5992;52.744;6.898;2022-11-20T15:28:00;9.37;;;7.27;;
11865;SDS011;5992;52.744;6.898;2022-11-20T15:31:12;9.70;;;7.33;;
11865;SDS011;5992;52.744;6.898;2022-11-20T15:34:26;11.13;;;7.63;;
11865;SDS011;5992;52.744;6.898;2022-11-20T15:37:52;11.10;;;8.00;;
11865;SDS011;5992;52.744;6.898;2022-11-20T15:40:54;11.37;;;8.30;;
11865;SDS011;5992;52.744;6.898;2022-11-20T15:44:22;14.20;;;8.10;;
11865;SDS011;5992;52.744;6.898;2022-11-20T15:47:23;10.70;;;7.20;;
11865;SDS011;5992;52.744;6.898;2022-11-20T15:50:48;8.97;;;7.50;;
11865;SDS011;5992;52.744;6.898;2022-11-20T15:53:59;10.07;;;7.43;;
11865;SDS011;5992;52.744;6.898;2022-11-20T15:57:24;10.87;;;7.93;;
11865;SDS011;5992;52.744;6.898;2022-11-20T16:00:39;10.20;;;7.95;;
11865;SDS011;5992;52.744;6.898;2022-11-20T16:03:52;9.95;;;7.70;;
11865;SDS011;5992;52.744;6.898;2022-11-20T16:07:04;10.40;;;8.00;;
11865;SDS011;5992;52.744;6.898;2022-11-20T16:10:29;13.07;;;8.80;;
11865;SDS011;5992;52.744;6.898;2022-11-20T16:13:31;10.30;;;7.97;;
11865;SDS011;5992;52.744;6.898;2022-11-20T16:17:02;12.10;;;8.83;;
11865;SDS011;5992;52.744;6.898;2022-11-20T16:20:13;12.20;;;8.95;;
11865;SDS011;5992;52.744;6.898;2022-11-20T16:23:25;10.07;;;8.53;;
11865;SDS011;5992;52.744;6.898;2022-11-20T16:26:25;10.47;;;8.10;;
11865;SDS011;5992;52.744;6.898;2022-11-20T16:29:38;10.10;;;7.83;;
11865;SDS011;5992;52.744;6.898;2022-11-20T16:32:51;13.50;;;8.57;;
11865;SDS011;5992;52.744;6.898;2022-11-20T16:36:07;13.35;;;9.55;;
11865;SDS011;5992;52.744;6.898;2022-11-20T16:39:19;11.45;;;8.55;;
11865;SDS011;5992;52.744;6.898;2022-11-20T16:42:32;11.65;;;8.40;;
11865;SDS011;5992;52.744;6.898;2022-11-20T16:45:44;11.47;;;8.90;;
11865;SDS011;5992;52.744;6.898;2022-11-20T16:49:13;12.07;;;8.47;;
11865;SDS011;5992;52.744;6.898;2022-11-20T16:52:24;14.33;;;8.37;;
11865;SDS011;5992;52.744;6.898;2022-11-20T16:55:36;13.17;;;8.63;;
11865;SDS011;5992;52.744;6.898;2022-11-20T16:58:39;12.00;;;8.20;;
11865;SDS011;5992;52.744;6.898;2022-11-20T17:01:53;14.05;;;9.00;;
11865;SDS011;5992;52.744;6.898;2022-11-20T17:05:05;11.73;;;8.53;;
11865;SDS011;5992;52.744;6.898;2022-11-20T17:08:18;12.13;;;8.93;;
11865;SDS011;5992;52.744;6.898;2022-11-20T17:11:21;13.20;;;8.53;;
11865;SDS011;5992;52.744;6.898;2022-11-20T17:14:48;13.43;;;8.50;;
11865;SDS011;5992;52.744;6.898;2022-11-20T17:17:50;12.07;;;8.40;;
11865;SDS011;5992;52.744;6.898;2022-11-20T17:21:15;12.33;;;8.67;;
11865;SDS011;5992;52.744;6.898;2022-11-20T17:24:28;10.65;;;8.65;;
11865;SDS011;5992;52.744;6.898;2022-11-20T17:27:44;10.73;;;7.97;;
11865;SDS011;5992;52.744;6.898;2022-11-20T17:30:44;12.47;;;8.63;;
11865;SDS011;5992;52.744;6.898;2022-11-20T17:33:58;10.80;;;7.63;;
11865;SDS011;5992;52.744;6.898;2022-11-20T17:37:10;11.97;;;7.77;;
11865;SDS011;5992;52.744;6.898;2022-11-20T17:40:34;11.33;;;8.13;;
11865;SDS011;5992;52.744;6.898;2022-11-20T17:43:34;14.75;;;10.05;;
11865;SDS011;5992;52.744;6.898;2022-11-20T17:46:58;15.73;;;10.10;;
11865;SDS011;5992;52.744;6.898;2022-11-20T17:50:00;14.57;;;9.13;;
11865;SDS011;5992;52.744;6.898;2022-11-20T17:53:23;15.03;;;9.17;;
11865;SDS011;5992;52.744;6.898;2022-11-20T17:56:23;13.93;;;9.27;;
11865;SDS011;5992;52.744;6.898;2022-11-20T17:59:53;14.53;;;9.53;;
11865;SDS011;5992;52.744;6.898;2022-11-20T18:03:05;12.05;;;8.70;;
11865;SDS011;5992;52.744;6.898;2022-11-20T18:06:10;13.13;;;8.97;;
11865;SDS011;5992;52.744;6.898;2022-11-20T18:09:34;14.43;;;9.40;;
11865;SDS011;5992;52.744;6.898;2022-11-20T18:12:34;16.77;;;10.43;;
11865;SDS011;5992;52.744;6.898;2022-11-20T18:15:49;14.47;;;9.13;;
11865;SDS011;5992;52.744;6.898;2022-11-20T18:18:52;15.00;;;9.30;;
11865;SDS011;5992;52.744;6.898;2022-11-20T18:22:17;12.17;;;7.93;;
11865;SDS011;5992;52.744;6.898;2022-11-20T18:25:29;15.13;;;9.07;;
11865;SDS011;5992;52.744;6.898;2022-11-20T18:28:41;14.63;;;9.03;;
11865;SDS011;5992;52.744;6.898;2022-11-20T18:31:41;13.77;;;9.63;;
11865;SDS011;5992;52.744;6.898;2022-11-20T18:35:07;13.50;;;9.17;;
11865;SDS011;5992;52.744;6.898;2022-11-20T18:38:09;11.70;;;8.20;;
11865;SDS011;5992;52.744;6.898;2022-11-20T18:41:33;12.70;;;8.97;;
11865;SDS011;5992;52.744;6.898;2022-11-20T18:44:39;14.70;;;8.70;;
11865;SDS011;5992;52.744;6.898;2022-11-20T18:48:04;14.13;;;8.60;;
11865;SDS011;5992;52.744;6.898;2022-11-20T18:51:05;13.90;;;9.27;;
11865;SDS011;5992;52.744;6.898;2022-11-20T18:54:30;14.00;;;9.00;;
11865;SDS011;5992;52.744;6.898;2022-11-20T18:57:42;16.65;;;9.00;;
11865;SDS011;5992;52.744;6.898;2022-11-20T19:00:53;15.65;;;9.80;;
11865;SDS011;5992;52.744;6.898;2022-11-20T19:03:53;14.10;;;8.43;;
11865;SDS011;5992;52.744;6.898;2022-11-20T19:07:06;13.73;;;9.07;;
11865;SDS011;5992;52.744;6.898;2022-11-20T19:10:19;11.90;;;8.13;;
11865;SDS011;5992;52.744;6.898;2022-11-20T19:13:44;12.20;;;8.77;;
11865;SDS011;5992;52.744;6.898;2022-11-20T19:16:55;13.45;;;8.95;;
11865;SDS011;5992;52.744;6.898;2022-11-20T19:20:11;14.45;;;9.55;;
11865;SDS011;5992;52.744;6.898;2022-11-20T19:23:23;14.25;;;10.10;;
11865;SDS011;5992;52.744;6.898;2022-11-20T19:26:37;14.77;;;10.23;;
11865;SDS011;5992;52.744;6.898;2022-11-20T19:29:50;18.57;;;10.00;;
11865;SDS011;5992;52.744;6.898;2022-11-20T19:33:02;13.20;;;8.70;;
11865;SDS011;5992;52.744;6.898;2022-11-20T19:36:09;12.33;;;8.77;;
11865;SDS011;5992;52.744;6.898;2022-11-20T19:39:33;14.00;;;9.10;;
11865;SDS011;5992;52.744;6.898;2022-11-20T19:42:35;12.20;;;8.67;;
11865;SDS011;5992;52.744;6.898;2022-11-20T19:46:00;11.50;;;8.33;;
11865;SDS011;5992;52.744;6.898;2022-11-20T19:49:12;13.10;;;8.47;;